createdAt,value
2019-04-25T00:00:56.327Z,962.92
2019-04-25T00:01:56.403Z,962.94
2019-04-25T00:02:56.434Z,963.00
2019-04-25T00:03:56.452Z,962.96
2019-04-25T00:04:56.516Z,962.89
2019-04-25T00:05:56.543Z,962.84
2019-04-25T00:06:56.627Z,962.85
2019-04-25T00:07:56.660Z,962.89
2019-04-25T00:08:56.679Z,963.02
2019-04-25T00:09:56.728Z,963.09
2019-04-25T00:10:56.772Z,963.12
2019-04-25T00:11:59.480Z,963.01
2019-04-25T00:12:56.895Z,962.94
2019-04-25T00:13:56.913Z,962.99
2019-04-25T00:14:56.968Z,963.00
2019-04-25T00:15:57.013Z,963.10
2019-04-25T00:16:57.052Z,963.22
2019-04-25T00:17:57.120Z,963.24
2019-04-25T00:18:57.180Z,963.11
2019-04-25T00:19:57.194Z,962.99
2019-04-25T00:20:57.237Z,962.94
2019-04-25T00:21:57.278Z,963.04
2019-04-25T00:22:57.333Z,963.11
2019-04-25T00:23:57.392Z,963.00
2019-04-25T00:24:57.419Z,963.05
2019-04-25T00:25:57.477Z,963.18
2019-04-25T00:26:57.508Z,963.17
2019-04-25T00:27:57.579Z,963.10
2019-04-25T00:28:57.624Z,963.07
2019-04-25T00:29:57.648Z,963.09
2019-04-25T00:30:57.702Z,963.04
2019-04-25T00:31:57.747Z,963.00
2019-04-25T00:32:57.804Z,963.00
2019-04-25T00:33:57.852Z,962.92
2019-04-25T00:34:57.879Z,962.90
2019-04-25T00:35:57.928Z,963.03
2019-04-25T00:36:57.974Z,963.07
2019-04-25T00:37:58.019Z,963.01
2019-04-25T00:38:58.086Z,963.02
2019-04-25T00:39:58.110Z,963.04
2019-04-25T00:40:58.158Z,963.04
2019-04-25T00:41:58.206Z,962.99
2019-04-25T00:42:58.252Z,963.07
2019-04-25T00:43:58.597Z,963.09
2019-04-25T00:44:58.343Z,963.09
2019-04-25T00:45:58.390Z,963.09
2019-04-25T00:46:58.434Z,963.04
2019-04-25T00:47:58.485Z,963.11
2019-04-25T00:48:58.558Z,963.09
2019-04-25T00:49:58.573Z,963.09
2019-04-25T00:50:58.621Z,962.97
2019-04-25T00:51:58.676Z,962.98
2019-04-25T00:52:58.851Z,962.96
2019-04-25T00:53:58.779Z,962.96
2019-04-25T00:54:58.808Z,963.01
2019-04-25T00:55:58.852Z,963.00
2019-04-25T00:56:58.902Z,962.91
2019-04-25T00:57:58.948Z,962.92
2019-04-25T00:58:59.030Z,962.90
2019-04-25T00:59:59.038Z,962.88
2019-04-25T01:00:59.087Z,962.79
2019-04-25T01:01:59.135Z,962.73
2019-04-25T01:02:59.176Z,962.70
2019-04-25T01:03:59.271Z,962.76
2019-04-25T01:04:59.268Z,962.79
2019-04-25T01:05:59.314Z,962.70
2019-04-25T01:06:59.361Z,962.82
2019-04-25T01:07:59.411Z,962.83
2019-04-25T01:08:59.475Z,962.76
2019-04-25T01:09:59.517Z,962.83
2019-04-25T01:10:59.576Z,962.91
2019-04-25T01:11:59.599Z,963.02
2019-04-25T01:13:01.360Z,963.04
2019-04-25T01:13:59.715Z,963.06
2019-04-25T01:15:01.540Z,963.04
2019-04-25T01:15:59.777Z,962.96
2019-04-25T01:16:59.823Z,962.89
2019-04-25T01:18:01.094Z,962.83
2019-04-25T01:18:59.918Z,962.85
2019-04-25T01:19:59.992Z,962.96
2019-04-25T01:21:00.010Z,962.98
2019-04-25T01:22:00.114Z,962.89
2019-04-25T01:23:00.950Z,962.85
2019-04-25T01:24:00.153Z,962.82
2019-04-25T01:25:00.216Z,962.77
2019-04-25T01:26:00.244Z,962.75
2019-04-25T01:27:00.303Z,962.77
2019-04-25T01:28:00.334Z,962.78
2019-04-25T01:29:00.434Z,962.73
2019-04-25T01:30:00.463Z,962.70
2019-04-25T01:31:00.480Z,962.69
2019-04-25T01:32:00.519Z,962.68
2019-04-25T01:33:00.573Z,962.76
2019-04-25T01:34:00.614Z,963.00
2019-04-25T01:35:00.681Z,963.07
2019-04-25T01:36:00.756Z,963.00
2019-04-25T01:37:00.754Z,962.98
2019-04-25T01:38:00.798Z,962.91
2019-04-25T01:39:00.845Z,962.81
2019-04-25T01:40:00.928Z,962.77
2019-04-25T01:41:00.947Z,962.78
2019-04-25T01:42:00.985Z,962.66
2019-04-25T01:43:01.029Z,962.58
2019-04-25T01:44:01.080Z,962.60
2019-04-25T01:45:01.153Z,962.72
2019-04-25T01:46:01.181Z,962.81
2019-04-25T01:47:01.232Z,962.84
2019-04-25T01:48:01.267Z,962.81
2019-04-25T01:49:01.313Z,962.96
2019-04-25T01:50:01.375Z,962.94
2019-04-25T01:51:01.418Z,962.94
2019-04-25T01:52:01.464Z,962.77
2019-04-25T01:53:03.304Z,962.80
2019-04-25T01:54:01.549Z,962.78
2019-04-25T01:55:01.586Z,962.95
2019-04-25T01:56:07.132Z,962.93
2019-04-25T01:57:01.686Z,962.94
2019-04-25T01:58:01.722Z,962.87
2019-04-25T01:59:01.777Z,962.90
2019-04-25T02:00:01.963Z,963.07
2019-04-25T02:01:02.651Z,963.03
2019-04-25T02:02:03.797Z,962.97
2019-04-25T02:03:03.680Z,963.02
2019-04-25T02:04:03.254Z,962.98
2019-04-25T02:05:03.975Z,962.88
2019-04-25T02:06:04.106Z,962.87
2019-04-25T02:07:03.622Z,962.95
2019-04-25T02:08:02.196Z,962.92
2019-04-25T02:09:03.839Z,962.98
2019-04-25T02:10:03.669Z,962.98
2019-04-25T02:11:03.193Z,962.94
2019-04-25T02:12:03.373Z,963.03
2019-04-25T02:13:03.832Z,963.18
2019-04-25T02:14:05.044Z,963.14
2019-04-25T02:15:05.896Z,963.16
2019-04-25T02:16:03.416Z,963.03
2019-04-25T02:17:04.442Z,963.04
2019-04-25T02:18:03.779Z,963.04
2019-04-25T02:19:03.972Z,963.16
2019-04-25T02:20:04.166Z,963.21
2019-04-25T02:21:04.384Z,963.10
2019-04-25T02:22:04.006Z,963.05
2019-04-25T02:23:04.193Z,963.05
2019-04-25T02:24:04.357Z,963.12
2019-04-25T02:25:04.435Z,963.25
2019-04-25T02:26:12.640Z,963.25
2019-04-25T02:27:04.550Z,963.15
2019-04-25T02:28:05.518Z,963.20
2019-04-25T02:29:04.559Z,963.23
2019-04-25T02:30:04.396Z,963.12
2019-04-25T02:31:08.175Z,963.11
2019-04-25T02:32:08.784Z,963.17
2019-04-25T02:33:08.961Z,963.25
2019-04-25T02:34:06.272Z,963.23
2019-04-25T02:35:08.893Z,963.19
2019-04-25T02:36:08.322Z,963.14
2019-04-25T02:37:08.668Z,963.27
2019-04-25T02:38:08.504Z,963.38
2019-04-25T02:39:08.428Z,963.38
2019-04-25T02:40:06.667Z,963.40
2019-04-25T02:41:08.409Z,963.46
2019-04-25T02:42:06.847Z,963.40
2019-04-25T02:43:07.987Z,963.32
2019-04-25T02:44:09.268Z,963.30
2019-04-25T02:45:07.231Z,963.33
2019-04-25T02:46:07.458Z,963.33
2019-04-25T02:47:06.891Z,963.26
2019-04-25T02:48:05.699Z,963.24
2019-04-25T02:49:07.706Z,963.33
2019-04-25T02:50:08.341Z,963.31
2019-04-25T02:51:06.157Z,963.30
2019-04-25T02:52:08.498Z,963.24
2019-04-25T02:53:06.151Z,963.19
2019-04-25T02:54:06.740Z,963.21
2019-04-25T02:55:08.950Z,963.24
2019-04-25T02:56:12.402Z,963.34
2019-04-25T02:57:07.819Z,963.25
2019-04-25T02:58:05.641Z,963.31
2019-04-25T02:59:07.003Z,963.31
2019-04-25T03:00:07.328Z,963.32
2019-04-25T03:01:16.509Z,963.26
2019-04-25T03:02:05.798Z,963.16
2019-04-25T03:03:06.896Z,963.21
2019-04-25T03:04:07.421Z,963.29
2019-04-25T03:05:07.869Z,963.23
2019-04-25T03:06:07.479Z,963.23
2019-04-25T03:07:08.161Z,963.29
2019-04-25T03:08:08.316Z,963.29
2019-04-25T03:09:06.453Z,963.24
2019-04-25T03:10:07.695Z,963.25
2019-04-25T03:11:07.387Z,963.25
2019-04-25T03:12:06.593Z,963.21
2019-04-25T03:13:10.218Z,963.22
2019-04-25T03:14:07.121Z,963.26
2019-04-25T03:15:07.199Z,963.22
2019-04-25T03:16:07.636Z,963.14
2019-04-25T03:17:08.234Z,963.16
2019-04-25T03:18:09.286Z,963.18
2019-04-25T03:19:07.603Z,963.32
2019-04-25T03:20:08.070Z,963.30
2019-04-25T03:21:11.571Z,963.31
2019-04-25T03:22:08.295Z,963.26
2019-04-25T03:23:07.683Z,963.27
2019-04-25T03:24:10.391Z,963.26
2019-04-25T03:25:08.800Z,963.31
2019-04-25T03:26:06.250Z,963.34
2019-04-25T03:27:06.231Z,963.31
2019-04-25T03:28:06.097Z,963.21
2019-04-25T03:29:06.176Z,963.30
2019-04-25T03:30:09.586Z,963.32
2019-04-25T03:31:11.285Z,963.34
2019-04-25T03:32:11.335Z,963.25
2019-04-25T03:33:10.462Z,963.24
2019-04-25T03:34:11.395Z,963.17
2019-04-25T03:35:07.063Z,963.19
2019-04-25T03:36:06.846Z,963.19
2019-04-25T03:37:07.647Z,963.19
2019-04-25T03:38:06.426Z,963.18
2019-04-25T03:39:06.676Z,963.19
2019-04-25T03:40:06.658Z,963.17
2019-04-25T03:41:07.050Z,963.24
2019-04-25T03:42:06.485Z,963.33
2019-04-25T03:43:07.078Z,963.32
2019-04-25T03:44:06.594Z,963.31
2019-04-25T03:45:07.158Z,963.26
2019-04-25T03:46:07.046Z,963.20
2019-04-25T03:47:07.766Z,963.20
2019-04-25T03:48:07.509Z,963.19
2019-04-25T03:49:07.550Z,963.15
2019-04-25T03:50:07.294Z,963.21
2019-04-25T03:51:06.886Z,963.19
2019-04-25T03:52:06.936Z,963.19
2019-04-25T03:53:07.796Z,963.15
2019-04-25T03:54:08.525Z,963.13
2019-04-25T03:55:07.716Z,963.12
2019-04-25T03:56:07.351Z,963.09
2019-04-25T03:57:07.518Z,963.18
2019-04-25T03:58:08.675Z,963.08
2019-04-25T03:59:07.284Z,963.01
2019-04-25T04:00:07.531Z,963.06
2019-04-25T04:01:09.258Z,963.16
2019-04-25T04:02:08.173Z,963.09
2019-04-25T04:03:07.915Z,963.09
2019-04-25T04:04:07.982Z,963.12
2019-04-25T04:05:08.297Z,963.17
2019-04-25T04:06:08.617Z,963.13
2019-04-25T04:07:09.655Z,963.10
2019-04-25T04:08:07.661Z,963.20
2019-04-25T04:09:07.967Z,963.11
2019-04-25T04:10:08.009Z,963.09
2019-04-25T04:11:08.604Z,963.10
2019-04-25T04:12:07.988Z,963.10
2019-04-25T04:13:08.498Z,963.10
2019-04-25T04:14:08.241Z,963.07
2019-04-25T04:15:08.321Z,963.01
2019-04-25T04:16:08.469Z,963.01
2019-04-25T04:17:08.785Z,963.00
2019-04-25T04:18:08.608Z,962.99
2019-04-25T04:19:08.889Z,962.99
2019-04-25T04:20:08.861Z,962.97
2019-04-25T04:21:08.969Z,962.99
2019-04-25T04:22:09.054Z,962.96
2019-04-25T04:23:09.197Z,963.03
2019-04-25T04:24:08.374Z,963.01
2019-04-25T04:25:08.430Z,962.99
2019-04-25T04:26:08.455Z,963.00
2019-04-25T04:27:09.216Z,962.99
2019-04-25T04:28:08.554Z,962.97
2019-04-25T04:29:08.590Z,962.94
2019-04-25T04:30:08.657Z,962.95
2019-04-25T04:31:08.742Z,963.01
2019-04-25T04:32:08.746Z,963.05
2019-04-25T04:33:08.769Z,962.98
2019-04-25T04:34:08.814Z,962.97
2019-04-25T04:35:08.896Z,962.96
2019-04-25T04:36:08.925Z,962.93
2019-04-25T04:37:08.998Z,962.96
2019-04-25T04:38:09.598Z,962.92
2019-04-25T04:39:09.904Z,962.93
2019-04-25T04:40:09.609Z,962.91
2019-04-25T04:41:09.695Z,962.90
2019-04-25T04:42:09.627Z,962.85
2019-04-25T04:43:09.625Z,962.83
2019-04-25T04:44:09.996Z,962.94
2019-04-25T04:45:10.187Z,962.90
2019-04-25T04:46:10.113Z,962.89
2019-04-25T04:47:10.003Z,962.86
2019-04-25T04:48:10.219Z,962.84
2019-04-25T04:49:10.220Z,962.87
2019-04-25T04:50:10.411Z,962.92
2019-04-25T04:51:10.464Z,962.98
2019-04-25T04:52:10.448Z,962.94
2019-04-25T04:53:09.667Z,962.86
2019-04-25T04:54:09.728Z,962.86
2019-04-25T04:55:11.232Z,962.90
2019-04-25T04:56:09.824Z,962.82
2019-04-25T04:57:22.089Z,962.86
2019-04-25T04:58:10.370Z,962.80
2019-04-25T04:59:10.856Z,962.78
2019-04-25T05:00:10.248Z,962.82
2019-04-25T05:01:10.234Z,962.77
2019-04-25T05:02:10.671Z,962.85
2019-04-25T05:03:10.474Z,962.77
2019-04-25T05:04:10.607Z,962.83
2019-04-25T05:05:10.608Z,962.74
2019-04-25T05:06:10.936Z,962.73
2019-04-25T05:07:11.014Z,962.68
2019-04-25T05:08:11.046Z,962.77
2019-04-25T05:09:11.860Z,962.76
2019-04-25T05:10:11.276Z,962.76
2019-04-25T05:11:10.475Z,962.64
2019-04-25T05:12:10.722Z,962.76
2019-04-25T05:13:11.993Z,962.75
2019-04-25T05:14:11.047Z,962.74
2019-04-25T05:15:10.653Z,962.84
2019-04-25T05:16:11.175Z,962.82
2019-04-25T05:17:11.357Z,962.95
2019-04-25T05:18:11.518Z,962.88
2019-04-25T05:19:11.677Z,962.85
2019-04-25T05:20:11.986Z,962.77
2019-04-25T05:21:10.930Z,962.79
2019-04-25T05:22:12.340Z,962.75
2019-04-25T05:23:11.017Z,962.79
2019-04-25T05:24:11.061Z,962.86
2019-04-25T05:25:11.115Z,962.86
2019-04-25T05:26:11.149Z,962.82
2019-04-25T05:27:11.229Z,962.88
2019-04-25T05:28:11.238Z,962.87
2019-04-25T05:29:11.284Z,962.84
2019-04-25T05:30:11.332Z,962.84
2019-04-25T05:31:11.376Z,962.85
2019-04-25T05:32:11.457Z,962.88
2019-04-25T05:33:11.616Z,962.93
2019-04-25T05:34:11.517Z,962.95
2019-04-25T05:35:13.196Z,962.95
2019-04-25T05:36:11.602Z,962.95
2019-04-25T05:37:13.426Z,962.98
2019-04-25T05:38:14.236Z,962.96
2019-04-25T05:39:11.759Z,962.97
2019-04-25T05:40:13.692Z,962.89
2019-04-25T05:41:11.827Z,962.87
2019-04-25T05:42:11.876Z,962.87
2019-04-25T05:43:13.280Z,962.85
2019-04-25T05:44:11.977Z,962.86
2019-04-25T05:45:13.044Z,962.87
2019-04-25T05:46:13.212Z,962.83
2019-04-25T05:47:12.108Z,962.85
2019-04-25T05:48:12.175Z,962.87
2019-04-25T05:49:13.732Z,962.86
2019-04-25T05:50:13.809Z,962.87
2019-04-25T05:51:13.497Z,962.90
2019-04-25T05:52:13.888Z,962.90
2019-04-25T05:53:14.081Z,962.92
2019-04-25T05:54:13.981Z,962.86
2019-04-25T05:55:14.283Z,962.89
2019-04-25T05:56:13.627Z,962.92
2019-04-25T05:57:13.773Z,962.92
2019-04-25T05:58:13.856Z,962.92
2019-04-25T05:59:13.459Z,962.92
2019-04-25T06:00:13.455Z,962.95
2019-04-25T06:01:13.410Z,962.97
2019-04-25T06:02:13.954Z,962.90
2019-04-25T06:03:13.724Z,962.93
2019-04-25T06:04:13.933Z,962.94
2019-04-25T06:05:13.188Z,962.94
2019-04-25T06:06:13.427Z,962.99
2019-04-25T06:07:14.477Z,962.95
2019-04-25T06:08:14.121Z,962.94
2019-04-25T06:09:14.116Z,963.03
2019-04-25T06:10:14.417Z,963.05
2019-04-25T06:11:13.558Z,963.02
2019-04-25T06:12:13.496Z,962.99
2019-04-25T06:13:13.813Z,963.00
2019-04-25T06:14:13.575Z,962.98
2019-04-25T06:15:13.401Z,963.04
2019-04-25T06:16:13.539Z,963.00
2019-04-25T06:17:13.758Z,963.07
2019-04-25T06:18:13.990Z,963.10
2019-04-25T06:19:18.354Z,963.15
2019-04-25T06:20:13.675Z,963.13
2019-04-25T06:21:13.691Z,963.11
2019-04-25T06:22:15.132Z,963.13
2019-04-25T06:23:13.785Z,963.13
2019-04-25T06:24:13.880Z,963.10
2019-04-25T06:25:16.299Z,963.07
2019-04-25T06:26:22.570Z,963.06
2019-04-25T06:27:14.008Z,963.04
2019-04-25T06:28:14.021Z,962.95
2019-04-25T06:29:14.076Z,963.01
2019-04-25T06:30:15.679Z,963.12
2019-04-25T06:31:14.154Z,963.14
2019-04-25T06:32:14.340Z,963.13
2019-04-25T06:33:14.277Z,963.16
2019-04-25T06:34:14.327Z,963.18
2019-04-25T06:35:14.408Z,963.21
2019-04-25T06:36:14.439Z,963.18
2019-04-25T06:37:14.446Z,963.21
2019-04-25T06:38:14.490Z,963.23
2019-04-25T06:39:14.571Z,963.11
2019-04-25T06:40:14.585Z,963.07
2019-04-25T06:41:14.643Z,963.17
2019-04-25T06:42:14.686Z,963.06
2019-04-25T06:43:14.732Z,963.02
2019-04-25T06:44:14.801Z,963.10
2019-04-25T06:45:14.833Z,963.07
2019-04-25T06:46:14.882Z,963.11
2019-04-25T06:47:15.146Z,963.14
2019-04-25T06:48:14.976Z,963.12
2019-04-25T06:49:15.029Z,963.09
2019-04-25T06:50:15.811Z,963.12
2019-04-25T06:51:15.139Z,963.18
2019-04-25T06:52:15.200Z,963.15
2019-04-25T06:53:15.222Z,963.06
2019-04-25T06:54:15.297Z,963.15
2019-04-25T06:55:15.337Z,963.21
2019-04-25T06:56:15.371Z,963.20
2019-04-25T06:57:15.420Z,963.08
2019-04-25T06:58:15.470Z,963.10
2019-04-25T06:59:15.539Z,963.15
2019-04-25T07:00:15.600Z,963.28
2019-04-25T07:01:15.619Z,963.22
2019-04-25T07:02:15.679Z,963.22
2019-04-25T07:03:15.765Z,963.20
2019-04-25T07:04:15.829Z,963.20
2019-04-25T07:05:26.625Z,963.24
2019-04-25T07:06:15.885Z,963.24
2019-04-25T07:07:15.925Z,963.23
2019-04-25T07:08:15.978Z,963.21
2019-04-25T07:09:16.026Z,963.24
2019-04-25T07:10:16.099Z,963.27
2019-04-25T07:11:16.134Z,963.25
2019-04-25T07:12:16.178Z,963.33
2019-04-25T07:13:16.232Z,963.30
2019-04-25T07:14:16.294Z,963.29
2019-04-25T07:15:16.361Z,963.31
2019-04-25T07:16:16.381Z,963.23
2019-04-25T07:17:16.441Z,963.29
2019-04-25T07:18:16.494Z,963.24
2019-04-25T07:19:17.616Z,963.23
2019-04-25T07:20:16.613Z,963.22
2019-04-25T07:21:16.640Z,963.22
2019-04-25T07:22:16.690Z,963.22
2019-04-25T07:23:16.869Z,963.28
2019-04-25T07:24:17.613Z,963.31
2019-04-25T07:25:16.866Z,963.30
2019-04-25T07:26:16.901Z,963.35
2019-04-25T07:27:16.976Z,963.34
2019-04-25T07:28:24.168Z,963.34
2019-04-25T07:29:17.057Z,963.34
2019-04-25T07:30:26.956Z,963.32
2019-04-25T07:31:17.178Z,963.30
2019-04-25T07:32:17.213Z,963.37
2019-04-25T07:33:17.254Z,963.34
2019-04-25T07:34:17.304Z,963.27
2019-04-25T07:35:17.358Z,963.41
2019-04-25T07:36:17.445Z,963.38
2019-04-25T07:37:17.462Z,963.41
2019-04-25T07:38:17.518Z,963.32
2019-04-25T07:39:17.589Z,963.32
2019-04-25T07:40:17.617Z,963.34
2019-04-25T07:41:17.705Z,963.31
2019-04-25T07:42:17.842Z,963.24
2019-04-25T07:43:17.777Z,963.26
2019-04-25T07:44:17.840Z,963.24
2019-04-25T07:45:17.960Z,963.28
2019-04-25T07:46:17.949Z,963.26
2019-04-25T07:47:17.989Z,963.16
2019-04-25T07:48:18.047Z,963.22
2019-04-25T07:49:18.086Z,963.30
2019-04-25T07:50:18.135Z,963.33
2019-04-25T07:51:18.208Z,963.32
2019-04-25T07:52:18.241Z,963.34
2019-04-25T07:53:18.303Z,963.35
2019-04-25T07:54:18.356Z,963.33
2019-04-25T07:55:18.395Z,963.34
2019-04-25T07:56:18.477Z,963.30
2019-04-25T07:57:18.508Z,963.20
2019-04-25T07:58:18.566Z,963.26
2019-04-25T07:59:18.613Z,963.23
2019-04-25T08:00:18.713Z,963.25
2019-04-25T08:01:18.724Z,963.28
2019-04-25T08:02:18.757Z,963.30
2019-04-25T08:03:18.810Z,963.31
2019-04-25T08:04:18.865Z,963.31
2019-04-25T08:05:18.914Z,963.27
2019-04-25T08:06:19.005Z,963.20
2019-04-25T08:07:19.030Z,963.23
2019-04-25T08:08:19.072Z,963.21
2019-04-25T08:09:19.154Z,963.16
2019-04-25T08:10:19.186Z,963.21
2019-04-25T08:11:19.320Z,963.23
2019-04-25T08:12:19.291Z,963.23
2019-04-25T08:13:19.333Z,963.18
2019-04-25T08:14:19.386Z,963.19
2019-04-25T08:15:19.470Z,963.15
2019-04-25T08:16:19.528Z,963.11
2019-04-25T08:17:19.545Z,963.15
2019-04-25T08:18:19.613Z,963.21
2019-04-25T08:19:19.657Z,963.16
2019-04-25T08:20:19.709Z,963.13
2019-04-25T08:21:19.792Z,963.13
2019-04-25T08:22:19.824Z,963.14
2019-04-25T08:23:19.867Z,963.13
2019-04-25T08:24:19.909Z,963.12
2019-04-25T08:25:20.030Z,963.17
2019-04-25T08:26:20.020Z,963.15
2019-04-25T08:27:20.112Z,963.14
2019-04-25T08:28:20.142Z,963.06
2019-04-25T08:29:22.857Z,963.01
2019-04-25T08:30:20.231Z,963.06
2019-04-25T08:31:20.278Z,963.04
2019-04-25T08:32:20.356Z,963.04
2019-04-25T08:33:20.391Z,963.03
2019-04-25T08:34:20.440Z,963.08
2019-04-25T08:35:20.490Z,963.08
2019-04-25T08:36:20.577Z,963.06
2019-04-25T08:37:21.166Z,963.01
2019-04-25T08:38:20.646Z,962.96
2019-04-25T08:39:20.708Z,962.99
2019-04-25T08:40:20.753Z,963.02
2019-04-25T08:41:21.674Z,962.89
2019-04-25T08:42:20.888Z,962.96
2019-04-25T08:43:20.943Z,963.03
2019-04-25T08:44:20.975Z,963.08
2019-04-25T08:45:21.102Z,962.94
2019-04-25T08:46:21.065Z,963.01
2019-04-25T08:47:21.118Z,963.02
2019-04-25T08:48:21.195Z,963.11
2019-04-25T08:49:21.227Z,963.02
2019-04-25T08:50:28.901Z,963.00
2019-04-25T08:51:21.320Z,963.12
2019-04-25T08:52:21.398Z,963.11
2019-04-25T08:53:21.452Z,963.05
2019-04-25T08:54:21.482Z,963.09
2019-04-25T08:55:21.532Z,963.07
2019-04-25T08:56:21.594Z,963.11
2019-04-25T08:57:21.631Z,963.19
2019-04-25T08:58:21.706Z,963.13
2019-04-25T08:59:32.750Z,963.15
2019-04-25T09:00:21.795Z,963.13
2019-04-25T09:01:23.548Z,963.02
2019-04-25T09:02:23.424Z,963.09
2019-04-25T09:03:22.120Z,963.11
2019-04-25T09:04:22.010Z,963.07
2019-04-25T09:05:22.047Z,963.02
2019-04-25T09:06:22.113Z,963.07
2019-04-25T09:07:23.561Z,963.08
2019-04-25T09:08:23.987Z,962.85
2019-04-25T09:09:23.575Z,963.07
2019-04-25T09:10:23.765Z,963.07
2019-04-25T09:11:22.359Z,963.05
2019-04-25T09:12:23.936Z,963.10
2019-04-25T09:13:23.507Z,963.04
2019-04-25T09:14:22.539Z,963.05
2019-04-25T09:15:23.987Z,963.03
2019-04-25T09:16:23.959Z,963.02
2019-04-25T09:17:24.185Z,962.92
2019-04-25T09:18:24.057Z,963.03
2019-04-25T09:19:24.122Z,963.07
2019-04-25T09:20:23.567Z,963.02
2019-04-25T09:21:23.795Z,963.02
2019-04-25T09:22:24.223Z,962.89
2019-04-25T09:23:23.659Z,962.95
2019-04-25T09:24:24.525Z,962.89
2019-04-25T09:25:23.856Z,962.90
2019-04-25T09:26:24.143Z,962.93
2019-04-25T09:27:23.557Z,962.97
2019-04-25T09:28:23.822Z,962.94
2019-04-25T09:29:23.527Z,962.90
2019-04-25T09:30:24.096Z,962.92
2019-04-25T09:31:23.686Z,963.11
2019-04-25T09:32:23.820Z,963.03
2019-04-25T09:33:23.521Z,962.95
2019-04-25T09:34:23.852Z,962.97
2019-04-25T09:35:23.737Z,963.03
2019-04-25T09:36:24.051Z,963.09
2019-04-25T09:37:24.646Z,963.01
2019-04-25T09:38:24.383Z,962.94
2019-04-25T09:39:23.852Z,962.89
2019-04-25T09:40:24.119Z,962.91
2019-04-25T09:41:23.947Z,962.96
2019-04-25T09:42:23.992Z,962.91
2019-04-25T09:43:24.046Z,962.99
2019-04-25T09:44:24.264Z,962.94
2019-04-25T09:45:25.862Z,962.97
2019-04-25T09:46:24.339Z,963.07
2019-04-25T09:47:24.252Z,963.02
2019-04-25T09:48:24.302Z,963.20
2019-04-25T09:49:24.355Z,963.20
2019-04-25T09:50:24.445Z,963.20
2019-04-25T09:51:24.462Z,963.22
2019-04-25T09:52:24.515Z,963.21
2019-04-25T09:53:26.025Z,963.13
2019-04-25T09:54:24.633Z,963.24
2019-04-25T09:55:24.698Z,963.14
2019-04-25T09:56:24.721Z,963.18
2019-04-25T09:57:24.771Z,963.11
2019-04-25T09:58:24.828Z,963.29
2019-04-25T09:59:27.907Z,963.18
2019-04-25T10:00:24.956Z,963.24
2019-04-25T10:01:24.985Z,963.24
2019-04-25T10:02:25.042Z,963.24
2019-04-25T10:03:25.088Z,963.27
2019-04-25T10:04:25.143Z,963.21
2019-04-25T10:05:25.208Z,963.22
2019-04-25T10:06:25.249Z,963.20
2019-04-25T10:07:25.291Z,963.13
2019-04-25T10:08:25.342Z,963.14
2019-04-25T10:09:25.402Z,963.09
2019-04-25T10:10:25.487Z,963.17
2019-04-25T10:11:25.516Z,963.05
2019-04-25T10:12:25.563Z,963.20
2019-04-25T10:13:25.628Z,962.93
2019-04-25T10:14:25.655Z,963.17
2019-04-25T10:15:25.705Z,963.19
2019-04-25T10:16:25.785Z,963.17
2019-04-25T10:17:25.812Z,963.11
2019-04-25T10:18:25.862Z,963.08
2019-04-25T10:19:25.909Z,963.20
2019-04-25T10:20:25.995Z,963.00
2019-04-25T10:21:26.056Z,963.09
2019-04-25T10:22:26.061Z,962.97
2019-04-25T10:23:26.115Z,962.99
2019-04-25T10:24:26.182Z,963.04
2019-04-25T10:25:26.232Z,963.10
2019-04-25T10:26:26.304Z,963.01
2019-04-25T10:27:26.321Z,963.16
2019-04-25T10:28:26.375Z,962.91
2019-04-25T10:29:26.424Z,962.99
2019-04-25T10:30:26.477Z,963.03
2019-04-25T10:31:26.643Z,962.96
2019-04-25T10:32:26.581Z,962.96
2019-04-25T10:33:26.642Z,962.93
2019-04-25T10:34:26.682Z,962.95
2019-04-25T10:35:26.738Z,962.99
2019-04-25T10:36:26.800Z,962.95
2019-04-25T10:37:26.835Z,962.94
2019-04-25T10:38:26.889Z,963.03
2019-04-25T10:39:27.021Z,963.02
2019-04-25T10:40:26.984Z,963.03
2019-04-25T10:41:27.061Z,963.00
2019-04-25T10:42:27.100Z,962.95
2019-04-25T10:43:27.139Z,963.06
2019-04-25T10:44:27.198Z,962.96
2019-04-25T10:45:27.263Z,963.00
2019-04-25T10:46:27.312Z,962.92
2019-04-25T10:47:27.344Z,962.99
2019-04-25T10:48:27.398Z,962.96
2019-04-25T10:49:27.446Z,962.96
2019-04-25T10:50:27.501Z,963.01
2019-04-25T10:51:27.572Z,962.96
2019-04-25T10:52:27.602Z,962.95
2019-04-25T10:53:27.657Z,962.85
2019-04-25T10:54:27.707Z,963.03
2019-04-25T10:55:27.761Z,963.03
2019-04-25T10:56:27.913Z,963.01
2019-04-25T10:57:27.864Z,962.94
2019-04-25T10:58:27.913Z,962.82
2019-04-25T10:59:27.969Z,962.99
2019-04-25T11:00:28.040Z,962.93
2019-04-25T11:01:28.092Z,962.91
2019-04-25T11:02:28.116Z,963.00
2019-04-25T11:03:28.171Z,962.89
2019-04-25T11:04:28.260Z,962.86
2019-04-25T11:05:28.278Z,962.82
2019-04-25T11:06:28.333Z,962.90
2019-04-25T11:07:28.365Z,962.72
2019-04-25T11:08:28.425Z,962.86
2019-04-25T11:09:28.475Z,962.97
2019-04-25T11:10:28.522Z,962.84
2019-04-25T11:11:28.598Z,962.82
2019-04-25T11:12:28.657Z,962.85
2019-04-25T11:13:28.675Z,962.93
2019-04-25T11:14:28.725Z,962.96
2019-04-25T11:15:28.782Z,962.82
2019-04-25T11:16:28.850Z,962.78
2019-04-25T11:17:28.912Z,962.79
2019-04-25T11:18:28.933Z,962.73
2019-04-25T11:19:28.982Z,962.67
2019-04-25T11:20:29.041Z,962.78
2019-04-25T11:21:29.084Z,962.85
2019-04-25T11:22:29.159Z,962.80
2019-04-25T11:23:29.186Z,962.77
2019-04-25T11:24:29.237Z,962.75
2019-04-25T11:25:29.294Z,962.81
2019-04-25T11:26:29.356Z,962.81
2019-04-25T11:27:29.414Z,962.76
2019-04-25T11:28:29.443Z,962.79
2019-04-25T11:29:29.503Z,962.75
2019-04-25T11:30:29.632Z,962.81
2019-04-25T11:31:29.607Z,962.79
2019-04-25T11:32:29.673Z,962.78
2019-04-25T11:33:29.704Z,962.75
2019-04-25T11:34:29.762Z,962.81
2019-04-25T11:35:29.805Z,962.68
2019-04-25T11:36:29.862Z,962.69
2019-04-25T11:37:29.991Z,962.72
2019-04-25T11:38:30.924Z,962.74
2019-04-25T11:39:30.008Z,962.67
2019-04-25T11:40:30.067Z,962.80
2019-04-25T11:41:30.111Z,962.74
2019-04-25T11:42:30.185Z,962.72
2019-04-25T11:43:30.213Z,962.72
2019-04-25T11:44:30.286Z,962.76
2019-04-25T11:45:30.316Z,962.63
2019-04-25T11:46:30.388Z,962.72
2019-04-25T11:47:30.469Z,962.60
2019-04-25T11:48:30.471Z,962.59
2019-04-25T11:49:30.529Z,962.55
2019-04-25T11:50:30.583Z,962.44
2019-04-25T11:51:30.626Z,962.46
2019-04-25T11:52:30.706Z,962.71
2019-04-25T11:53:30.748Z,962.65
2019-04-25T11:54:30.779Z,962.60
2019-04-25T11:55:30.829Z,962.59
2019-04-25T11:56:30.884Z,962.60
2019-04-25T11:57:30.956Z,962.62
2019-04-25T11:58:30.987Z,962.55
2019-04-25T11:59:31.063Z,962.57
2019-04-25T12:00:31.088Z,962.65
2019-04-25T12:01:31.146Z,962.48
2019-04-25T12:02:31.198Z,962.55
2019-04-25T12:03:31.262Z,962.44
2019-04-25T12:04:31.298Z,962.49
2019-04-25T12:05:31.347Z,962.40
2019-04-25T12:06:31.403Z,962.27
2019-04-25T12:07:31.453Z,962.43
2019-04-25T12:08:31.530Z,962.38
2019-04-25T12:09:31.567Z,962.39
2019-04-25T12:10:31.614Z,962.33
2019-04-25T12:11:31.750Z,962.27
2019-04-25T12:12:31.716Z,962.40
2019-04-25T12:13:31.800Z,962.29
2019-04-25T12:14:31.860Z,962.35
2019-04-25T12:15:33.268Z,962.34
2019-04-25T12:16:31.933Z,962.22
2019-04-25T12:17:31.986Z,962.30
2019-04-25T12:18:33.439Z,962.28
2019-04-25T12:19:35.699Z,962.20
2019-04-25T12:20:32.133Z,962.17
2019-04-25T12:21:32.186Z,962.21
2019-04-25T12:22:32.243Z,962.11
2019-04-25T12:23:33.886Z,962.14
2019-04-25T12:24:33.493Z,962.18
2019-04-25T12:25:33.972Z,962.20
2019-04-25T12:26:33.697Z,962.15
2019-04-25T12:27:32.504Z,962.13
2019-04-25T12:28:33.858Z,962.09
2019-04-25T12:29:33.653Z,962.12